EGCN

Robin Hood Doncaster Sheffield Airport

Doncaster, United Kingdom
METAR EGCN 092120Z 27006KT CAVOK 06/02 Q1020
Observed Flight Rules
Dec-9 @ 21:20 UTC (32 minutes ago) Visual Flight Rules
Wind Visibility Clouds
270° at 6 knots 10,000+ meters
  • Clear skies
Temperatures Readings
Current 6°C / 43°F
Dewpoint 2°C / 36°F
Humidity 76%
Altimeter 30.12" Hg
Pressure 1020 hPa
Elevation 17
METAR EGCN 092120Z 27006KT CAVOK 06/02 Q1020
Observed Flight Rules
Dec-9 @ 21:20 UTC
(32 minutes ago)
VFR
Wind Visibility
270° at 6 knots 10,000+ meters
Clouds
  • Clear skies
Temperature Dewpoint
6°C / 43°F 2°C / 36°F
Humidity Altimeter Pressure
76% 30.12" Hg 1020 hPa